Time;durP1;ratioP1;P1;durP2;ratioP2;P2;SDS_P1;SDS_P2;PMS_P1;PMS_P2;Temp;Humidity;BMP_temperature;BMP_pressure;BME280_temperature;BME280_humidity;BME280_pressure;Samples;Min_cycle;Max_cycle;Signal;HPM_P1;HPM_P2
2022/08/13 00:01:20;;;;;;;5.67;3.40;;;20.90;50.60;;;;;;5086473;28;20817;-43
2022/08/13 00:03:53;;;;;;;6.20;4.10;;;20.80;50.80;;;;;;5087071;28;20999;-44
2022/08/13 00:07:02;;;;;;;4.57;4.17;;;20.60;50.90;;;;;;5067821;28;20456;-43
2022/08/13 00:09:22;;;;;;;6.77;4.07;;;20.50;51.50;;;;;;5085955;28;20978;-43
2022/08/13 00:15:20;;;;;;;5.00;3.30;;;20.70;50.70;;;;;;5085776;28;20460;-44
2022/08/13 00:17:49;;;;;;;7.87;3.53;;;20.70;50.60;;;;;;5087654;28;20480;-44
2022/08/13 00:20:52;;;;;;;5.53;3.10;;;20.70;50.60;;;;;;5084991;28;20945;-43
2022/08/13 00:23:27;;;;;;;4.37;2.67;;;20.50;51.10;;;;;;5085400;28;20511;-44
2022/08/13 00:26:14;;;;;;;2.67;2.30;;;20.50;51.10;;;;;;5084792;28;20496;-44
2022/08/13 00:28:56;;;;;;;3.70;2.90;;;20.40;51.30;;;;;;5085128;28;20449;-43
2022/08/13 00:31:24;;;;;;;2.90;2.60;;;20.30;51.60;;;;;;5072127;28;20542;-44
2022/08/13 00:33:51;;;;;;;3.13;2.63;;;20.30;51.60;;;;;;5073853;28;20451;-43
2022/08/13 00:36:21;;;;;;;4.00;2.60;;;20.30;51.60;;;;;;5084818;28;20899;-43
2022/08/13 00:39:09;;;;;;;3.23;2.17;;;20.40;51.50;;;;;;5085925;28;20465;-43
2022/08/13 00:41:37;;;;;;;3.13;2.20;;;20.40;51.40;;;;;;5068630;28;20449;-44
2022/08/13 00:44:24;;;;;;;2.83;2.30;;;20.40;51.20;;;;;;5086950;28;20433;-44
2022/08/13 00:48:41;;;;;;;3.20;2.20;;;20.50;51.10;;;;;;5066439;28;20876;-44
2022/08/13 00:49:47;;;;;;;3.60;2.63;;;20.40;51.30;;;;;;5070242;28;20467;-44
2022/08/13 00:52:30;;;;;;;3.10;2.27;;;20.40;51.30;;;;;;5087040;28;20496;-44
2022/08/13 00:55:05;;;;;;;3.60;2.30;;;20.40;51.30;;;;;;5069676;28;20844;-44
2022/08/13 00:57:34;;;;;;;2.33;2.13;;;20.40;51.30;;;;;;5084715;28;20863;-43
2022/08/13 01:00:13;;;;;;;2.20;2.07;;;20.40;51.10;;;;;;5086126;28;20481;-44
2022/08/13 01:02:45;;;;;;;3.50;2.10;;;20.40;51.20;;;;;;5086571;28;20886;-43
2022/08/13 01:05:24;;;;;;;2.50;2.30;;;20.30;51.50;;;;;;5087354;28;20460;-43
2022/08/13 01:07:52;;;;;;;3.10;1.93;;;20.30;51.60;;;;;;5074902;28;20555;-43
2022/08/13 01:10:24;;;;;;;6.80;2.80;;;20.00;51.90;;;;;;5088809;28;21030;-43
2022/08/13 01:12:57;;;;;;;2.50;2.30;;;20.10;51.90;;;;;;5073814;28;20970;-43
2022/08/13 01:15:24;;;;;;;2.57;2.10;;;20.10;51.90;;;;;;5075505;28;20483;-43
2022/08/13 01:18:13;;;;;;;3.80;2.40;;;20.00;52.40;;;;;;5081449;28;20480;-43
2022/08/13 01:20:46;;;;;;;3.17;2.93;;;19.90;52.40;;;;;;5085631;28;20447;-43
2022/08/13 01:23:16;;;;;;;1.90;1.80;;;19.60;52.90;;;;;;5091057;28;20544;-43
2022/08/13 01:25:44;;;;;;;2.93;2.17;;;19.50;53.60;;;;;;5086522;28;20906;-43
2022/08/13 01:28:28;;;;;;;5.50;2.77;;;19.50;53.80;;;;;;5077179;28;20886;-43
2022/08/13 01:30:59;;;;;;;2.83;2.60;;;19.50;54.00;;;;;;5087476;28;20487;-43
2022/08/13 01:33:29;;;;;;;2.63;2.40;;;19.50;53.80;;;;;;5064295;28;20534;-43
2022/08/13 01:36:13;;;;;;;5.20;2.43;;;19.60;53.30;;;;;;5075290;28;20523;-43
2022/08/13 01:38:44;;;;;;;4.27;2.60;;;19.60;53.80;;;;;;5090861;28;20460;-43
2022/08/13 01:41:11;;;;;;;3.53;2.50;;;19.50;53.90;;;;;;5076775;28;20465;-43
2022/08/13 01:43:43;;;;;;;2.00;1.90;;;19.40;53.90;;;;;;5076268;28;20895;-43
2022/08/13 01:46:12;;;;;;;2.40;2.20;;;19.30;54.30;;;;;;5087588;28;20946;-43
2022/08/13 01:51:35;;;;;;;2.63;2.20;;;19.40;54.00;;;;;;5086677;28;20868;-44
2022/08/13 01:54:11;;;;;;;2.83;1.80;;;19.40;53.90;;;;;;5088047;28;20513;-43
2022/08/13 01:57:00;;;;;;;3.07;2.00;;;19.40;54.50;;;;;;5074477;28;20530;-43
2022/08/13 01:59:30;;;;;;;1.83;1.70;;;19.40;54.30;;;;;;5086593;28;20743;-43
2022/08/13 02:02:17;;;;;;;3.53;2.37;;;19.30;54.20;;;;;;5077491;28;20495;-43
2022/08/13 02:05:01;;;;;;;2.03;1.80;;;19.30;54.70;;;;;;5079290;28;20744;-43
2022/08/13 02:07:29;;;;;;;2.23;2.03;;;19.30;54.70;;;;;;5071226;28;20853;-43
2022/08/13 02:10:20;;;;;;;4.63;2.03;;;19.10;55.70;;;;;;5089218;28;20448;-44
2022/08/13 02:12:49;;;;;;;3.00;2.17;;;18.90;55.60;;;;;;5088079;28;20468;-43
2022/08/13 02:15:16;;;;;;;2.93;2.30;;;18.80;55.80;;;;;;5088700;28;20478;-44
2022/08/13 02:17:45;;;;;;;2.83;2.60;;;18.90;56.00;;;;;;5087799;28;20480;-44
2022/08/13 02:20:34;;;;;;;4.17;2.17;;;19.00;55.80;;;;;;5087239;28;20452;-44
2022/08/13 02:23:05;;;;;;;2.03;1.93;;;19.00;55.70;;;;;;5089955;28;20807;-44
2022/08/13 02:25:36;;;;;;;2.13;2.00;;;18.90;56.00;;;;;;5090465;28;20515;-44
2022/08/13 02:28:04;;;;;;;3.50;1.97;;;18.70;56.30;;;;;;5088662;28;20535;-46
2022/08/13 02:30:38;;;;;;;2.83;2.47;;;18.60;56.90;;;;;;5075391;28;20452;-46
2022/08/13 02:33:09;;;;;;;2.10;2.00;;;18.60;56.60;;;;;;5088756;28;20452;-45
2022/08/13 02:35:45;;;;;;;3.23;2.30;;;18.60;57.00;;;;;;5063288;28;20441;-46
2022/08/13 02:38:14;;;;;;;2.60;2.07;;;18.80;56.40;;;;;;5086914;28;20523;-46
2022/08/13 02:43:46;;;;;;;4.13;2.50;;;19.00;56.00;;;;;;5075065;28;20459;-46
2022/08/13 02:46:25;;;;;;;3.43;2.37;;;18.90;56.60;;;;;;5074757;28;20996;-46
2022/08/13 02:48:52;;;;;;;2.30;2.20;;;18.70;56.60;;;;;;5087159;28;20448;-46
2022/08/13 02:51:20;;;;;;;2.73;2.40;;;18.60;56.70;;;;;;5069308;28;20457;-46
2022/08/13 02:54:07;;;;;;;2.90;2.03;;;18.50;57.40;;;;;;5087559;28;20506;-46
2022/08/13 02:56:36;;;;;;;2.63;2.00;;;18.30;57.60;;;;;;5086873;28;20557;-45
2022/08/13 02:59:05;;;;;;;2.33;2.13;;;18.30;57.90;;;;;;5073557;28;20879;-46
2022/08/13 03:01:52;;;;;;;4.37;2.70;;;18.30;57.90;;;;;;5087704;28;20537;-46
2022/08/13 03:04:20;;;;;;;2.70;2.50;;;18.40;57.70;;;;;;5085157;28;20514;-45
2022/08/13 03:06:59;;;;;;;2.23;2.10;;;18.40;58.20;;;;;;5081168;28;20472;-46
2022/08/13 03:09:27;;;;;;;2.27;2.07;;;18.40;57.80;;;;;;5071371;28;20466;-46
2022/08/13 03:11:59;;;;;;;3.80;2.37;;;18.40;57.90;;;;;;5087291;28;20991;-46
2022/08/13 03:14:31;;;;;;;4.37;3.00;;;18.50;58.10;;;;;;5086652;28;20461;-46
2022/08/13 03:16:58;;;;;;;2.67;1.97;;;18.50;57.90;;;;;;5055973;28;20480;-45
2022/08/13 03:19:25;;;;;;;2.80;2.60;;;18.50;57.60;;;;;;5086926;28;20950;-46
2022/08/13 03:21:52;;;;;;;2.30;2.07;;;18.50;57.80;;;;;;5086569;28;20460;-46
2022/08/13 03:24:21;;;;;;;3.23;2.27;;;18.60;57.40;;;;;;5069726;28;20828;-45
2022/08/13 03:26:59;;;;;;;4.60;2.10;;;18.70;57.20;;;;;;5076185;28;20506;-46
2022/08/13 03:29:27;;;;;;;2.73;2.47;;;18.70;57.10;;;;;;5085232;28;20461;-46
2022/08/13 03:32:15;;;;;;;2.33;2.10;;;18.50;57.40;;;;;;5086881;28;20466;-46
2022/08/13 03:34:43;;;;;;;2.57;2.37;;;18.40;58.00;;;;;;5083546;28;20460;-46
2022/08/13 03:37:10;;;;;;;3.10;2.30;;;18.30;58.20;;;;;;5088292;28;20860;-45
2022/08/13 03:39:39;;;;;;;2.43;2.23;;;18.30;58.40;;;;;;5087388;28;21035;-45
2022/08/13 03:42:10;;;;;;;4.07;1.70;;;18.30;58.50;;;;;;5086497;28;20876;-46
2022/08/13 03:44:45;;;;;;;2.27;2.07;;;18.20;58.60;;;;;;5086536;28;20530;-46
2022/08/13 03:47:13;;;;;;;2.23;2.03;;;18.20;58.90;;;;;;5087416;28;20448;-46
2022/08/13 03:50:03;;;;;;;2.00;1.90;;;18.30;58.50;;;;;;5077367;28;20522;-45
2022/08/13 03:52:33;;;;;;;2.17;2.03;;;18.20;58.30;;;;;;5087707;28;20451;-46
2022/08/13 03:55:11;;;;;;;3.10;2.40;;;18.20;58.40;;;;;;5087573;28;20462;-45
2022/08/13 03:57:44;;;;;;;2.10;2.00;;;18.20;58.60;;;;;;5087524;28;20514;-46
2022/08/13 04:00:32;;;;;;;2.30;2.17;;;18.30;58.50;;;;;;5086902;28;20861;-46
2022/08/13 04:03:00;;;;;;;6.10;2.80;;;18.30;58.30;;;;;;5085549;28;20543;-46
2022/08/13 04:05:30;;;;;;;2.77;2.23;;;18.40;58.10;;;;;;5087085;28;20457;-46
2022/08/13 04:08:16;;;;;;;4.23;2.47;;;18.50;57.90;;;;;;5086473;28;20473;-45
2022/08/13 04:10:44;;;;;;;2.60;2.40;;;18.60;57.70;;;;;;5063766;28;21963;-46
2022/08/13 04:13:20;;;;;;;2.23;2.13;;;18.60;57.70;;;;;;5085029;28;20728;-45
2022/08/13 04:16:11;;;;;;;5.00;2.80;;;18.60;57.90;;;;;;5085214;28;21004;-46
2022/08/13 04:18:39;;;;;;;2.37;2.20;;;18.40;58.00;;;;;;5071465;28;21025;-46
2022/08/13 04:21:08;;;;;;;3.00;2.60;;;18.30;58.20;;;;;;5087238;28;20457;-46
2022/08/13 04:23:41;;;;;;;3.90;2.43;;;18.20;58.80;;;;;;5084470;28;20849;-46
2022/08/13 04:26:14;;;;;;;2.80;2.50;;;18.20;58.70;;;;;;5084896;28;20456;-46
2022/08/13 04:28:57;;;;;;;2.30;2.00;;;18.10;59.40;;;;;;5074718;28;20819;-46
2022/08/13 04:31:24;;;;;;;2.70;2.17;;;18.00;59.70;;;;;;5084527;28;20464;-46
2022/08/13 04:34:10;;;;;;;4.20;2.50;;;17.90;60.20;;;;;;5083103;28;20688;-46
2022/08/13 04:36:57;;;;;;;3.50;2.57;;;17.80;60.70;;;;;;5084926;28;20536;-46
2022/08/13 04:39:26;;;;;;;2.90;2.33;;;17.80;60.50;;;;;;5067012;28;20453;-46
2022/08/13 04:42:13;;;;;;;5.20;2.77;;;18.00;60.10;;;;;;5072522;28;20641;-46
2022/08/13 04:44:58;;;;;;;2.50;2.30;;;18.10;59.70;;;;;;5078066;28;20452;-46
2022/08/13 04:47:27;;;;;;;3.13;2.27;;;18.20;59.50;;;;;;5087470;28;20483;-45
2022/08/13 04:49:54;;;;;;;4.53;2.80;;;18.20;59.60;;;;;;5088599;28;20471;-46
2022/08/13 04:52:21;;;;;;;2.07;1.87;;;18.20;59.50;;;;;;5090692;28;20799;-46
2022/08/13 04:54:55;;;;;;;3.90;2.50;;;18.30;59.50;;;;;;5080031;28;20521;-46
2022/08/13 04:57:22;;;;;;;4.73;2.50;;;18.30;59.50;;;;;;5089933;28;20517;-46
2022/08/13 05:00:09;;;;;;;2.60;2.40;;;18.40;59.40;;;;;;5087951;28;20450;-46
2022/08/13 05:02:43;;;;;;;3.23;2.93;;;18.40;59.50;;;;;;5072976;28;20452;-45
2022/08/13 05:05:11;;;;;;;2.50;2.30;;;18.40;59.60;;;;;;5086950;28;20492;-46
2022/08/13 05:07:48;;;;;;;3.00;2.80;;;18.40;59.70;;;;;;5076110;28;20501;-45
2022/08/13 05:10:21;;;;;;;4.17;2.10;;;18.50;59.60;;;;;;5085789;28;20479;-46
2022/08/13 05:13:03;;;;;;;2.50;2.30;;;18.60;59.70;;;;;;5090314;28;20495;-46
2022/08/13 05:15:32;;;;;;;4.00;2.60;;;18.70;59.50;;;;;;5090286;28;20463;-46
2022/08/13 05:18:13;;;;;;;5.63;2.97;;;18.80;59.50;;;;;;5085315;28;20476;-46
2022/08/13 05:20:55;;;;;;;4.27;2.40;;;18.80;59.40;;;;;;5064999;28;20491;-46
2022/08/13 05:23:24;;;;;;;4.30;2.20;;;18.90;59.60;;;;;;5090232;28;20465;-45
2022/08/13 05:26:12;;;;;;;4.57;2.67;;;18.90;59.80;;;;;;5074825;28;21238;-46
2022/08/13 05:29:04;;;;;;;3.97;2.63;;;18.90;59.70;;;;;;5067975;28;20468;-46
2022/08/13 05:31:34;;;;;;;2.53;2.13;;;18.90;59.90;;;;;;5085896;28;20457;-46
2022/08/13 05:34:21;;;;;;;4.10;2.50;;;18.90;59.90;;;;;;5076515;28;20441;-46
2022/08/13 05:36:47;;;;;;;2.63;2.43;;;19.00;59.90;;;;;;5087557;28;20455;-46
2022/08/13 05:39:34;;;;;;;2.60;2.40;;;19.10;59.70;;;;;;5087238;28;20437;-45
2022/08/13 05:42:09;;;;;;;4.10;2.70;;;19.10;60.20;;;;;;5088673;28;20501;-45
2022/08/13 05:44:36;;;;;;;3.90;2.57;;;19.20;60.00;;;;;;5072233;28;20795;-46
2022/08/13 05:47:05;;;;;;;2.93;2.53;;;19.20;60.30;;;;;;5084354;28;20486;-46
2022/08/13 05:49:33;;;;;;;2.60;2.40;;;19.30;61.00;;;;;;5089272;28;20453;-46
2022/08/13 05:52:23;;;;;;;3.63;3.03;;;19.40;60.20;;;;;;5086139;28;20444;-46
2022/08/13 05:55:12;;;;;;;5.77;2.97;;;19.50;60.30;;;;;;5073911;28;20510;-45
2022/08/13 05:57:59;;;;;;;3.43;2.40;;;19.60;59.70;;;;;;5087084;28;20809;-46
2022/08/13 06:03:27;;;;;;;4.23;3.10;;;19.80;59.70;;;;;;5087893;28;20445;-46
2022/08/13 06:06:16;;;;;;;2.80;2.53;;;20.00;58.90;;;;;;5086544;28;21399;-46
2022/08/13 06:08:56;;;;;;;4.07;2.67;;;20.10;58.20;;;;;;5087463;28;20451;-45
2022/08/13 06:11:26;;;;;;;3.00;2.80;;;20.20;57.30;;;;;;5086704;28;20464;-47
2022/08/13 06:14:23;;;;;;;3.23;2.80;;;20.30;57.60;;;;;;5076654;28;20440;-46
2022/08/13 06:16:58;;;;;;;5.10;2.70;;;20.40;57.50;;;;;;5085598;28;20540;-46
2022/08/13 06:19:29;;;;;;;3.07;2.20;;;20.50;57.00;;;;;;5075699;28;20511;-47
2022/08/13 06:22:04;;;;;;;2.60;2.40;;;20.60;55.60;;;;;;5087713;28;20472;-47
2022/08/13 06:24:32;;;;;;;2.27;2.07;;;20.70;55.40;;;;;;5068193;28;20495;-47
2022/08/13 06:27:04;;;;;;;3.83;2.57;;;20.80;55.00;;;;;;5089646;28;20475;-44
2022/08/13 06:29:43;;;;;;;8.73;2.80;;;20.90;54.60;;;;;;5086312;28;20934;-45
2022/08/13 06:32:20;;;;;;;4.87;3.00;;;21.00;55.60;;;;;;5080662;28;20457;-45
2022/08/13 06:35:08;;;;;;;4.33;2.30;;;21.10;55.20;;;;;;5073262;28;20449;-44
2022/08/13 06:37:41;;;;;;;3.60;2.43;;;21.20;55.00;;;;;;5087821;28;20485;-45
2022/08/13 06:40:21;;;;;;;2.90;2.33;;;21.30;54.50;;;;;;5072085;28;20937;-44
2022/08/13 06:43:01;;;;;;;4.03;2.80;;;21.40;54.20;;;;;;5075435;28;20545;-45
2022/08/13 06:45:29;;;;;;;3.50;2.37;;;21.40;54.30;;;;;;5072359;28;20456;-44
2022/08/13 06:48:01;;;;;;;3.30;2.43;;;21.50;54.80;;;;;;5087444;28;20467;-45
2022/08/13 06:50:33;;;;;;;2.77;2.57;;;21.60;55.70;;;;;;5072898;28;20529;-45
2022/08/13 06:53:03;;;;;;;3.03;2.73;;;21.70;54.50;;;;;;5084179;28;20472;-45
2022/08/13 06:55:52;;;;;;;3.20;2.43;;;21.90;53.70;;;;;;5085199;28;20509;-45
2022/08/13 06:58:41;;;;;;;4.53;2.43;;;22.00;54.50;;;;;;5084856;28;21034;-45
2022/08/13 07:01:09;;;;;;;2.80;2.20;;;22.10;53.30;;;;;;5086281;28;20453;-44
2022/08/13 07:03:40;;;;;;;5.07;2.70;;;22.20;55.30;;;;;;5085918;28;20993;-45
2022/08/13 07:06:27;;;;;;;3.33;2.67;;;22.30;53.40;;;;;;5070424;28;20464;-45
2022/08/13 07:08:57;;;;;;;2.90;2.70;;;22.50;51.60;;;;;;5081742;28;20541;-45
2022/08/13 07:11:27;;;;;;;2.87;2.60;;;22.60;51.90;;;;;;5078198;28;21055;-45
2022/08/13 07:14:06;;;;;;;2.50;2.13;;;22.70;52.70;;;;;;5080762;28;20815;-45
2022/08/13 07:16:40;;;;;;;2.60;1.97;;;22.80;51.50;;;;;;5077234;28;20888;-45
2022/08/13 07:19:11;;;;;;;2.60;2.40;;;22.90;52.20;;;;;;5052907;28;20491;-45
2022/08/13 07:21:40;;;;;;;2.33;2.00;;;23.00;50.10;;;;;;5079955;28;20525;-45
2022/08/13 07:24:12;;;;;;;2.70;2.37;;;23.10;51.80;;;;;;5080793;28;20460;-45
2022/08/13 07:27:07;;;;;;;5.67;2.30;;;23.20;50.50;;;;;;5061634;28;20981;-44
2022/08/13 07:29:38;;;;;;;2.60;2.40;;;23.30;50.40;;;;;;5055414;28;20464;-44
2022/08/13 07:32:19;;;;;;;3.90;1.97;;;23.50;50.70;;;;;;5074403;28;20464;-45
2022/08/13 07:34:58;;;;;;;2.87;2.60;;;23.60;49.30;;;;;;5089384;28;20464;-44
2022/08/13 07:37:26;;;;;;;3.10;2.50;;;23.80;48.50;;;;;;5057005;28;20519;-45
2022/08/13 07:39:53;;;;;;;2.17;2.07;;;23.90;47.90;;;;;;5061625;28;20858;-45
2022/08/13 07:42:23;;;;;;;2.50;2.20;;;24.00;48.40;;;;;;5075572;28;20796;-45
2022/08/13 07:45:00;;;;;;;3.77;2.60;;;24.10;47.50;;;;;;5075897;28;20567;-45
2022/08/13 07:47:50;;;;;;;1.97;1.87;;;24.20;47.70;;;;;;5080289;28;20460;-45
2022/08/13 07:50:38;;;;;;;2.27;1.83;;;24.40;46.80;;;;;;5052987;28;20460;-45
2022/08/13 07:53:10;;;;;;;3.20;2.00;;;24.50;47.00;;;;;;5080346;28;20952;-45
2022/08/13 07:55:43;;;;;;;2.80;2.17;;;24.60;46.00;;;;;;5068876;28;20451;-44
2022/08/13 07:58:33;;;;;;;2.10;1.90;;;24.70;46.30;;;;;;5075252;28;20488;-44
2022/08/13 08:01:02;;;;;;;3.30;2.30;;;24.90;46.10;;;;;;5074300;28;21292;-47
2022/08/13 08:03:42;;;;;;;2.00;1.80;;;25.00;45.90;;;;;;5083046;28;20470;-47
2022/08/13 08:06:18;;;;;;;7.00;3.20;;;25.20;45.20;;;;;;5070092;28;20916;-47
2022/08/13 08:08:55;;;;;;;2.70;1.80;;;25.40;44.80;;;;;;5080688;28;20463;-44
2022/08/13 08:14:18;;;;;;;2.50;2.30;;;25.70;45.20;;;;;;5087649;28;20460;-44
2022/08/13 08:17:01;;;;;;;3.50;2.00;;;25.80;45.30;;;;;;5079289;28;20556;-45
2022/08/13 08:19:50;;;;;;;3.63;2.07;;;26.00;45.00;;;;;;5086118;28;20479;-44
2022/08/13 08:22:39;;;;;;;3.53;2.17;;;26.10;44.10;;;;;;5083306;28;20514;-44
2022/08/13 08:25:10;;;;;;;2.13;1.93;;;26.30;44.50;;;;;;5084146;28;20451;-44
2022/08/13 08:27:47;;;;;;;3.30;1.93;;;26.30;43.40;;;;;;5057322;28;21154;-46
2022/08/13 08:30:37;;;;;;;2.20;2.03;;;26.50;43.20;;;;;;5071534;28;20521;-46
2022/08/13 08:33:25;;;;;;;5.33;2.30;;;26.70;43.30;;;;;;5085062;28;20533;-46
2022/08/13 08:36:11;;;;;;;1.87;1.77;;;26.80;43.20;;;;;;5083674;28;20452;-46
2022/08/13 08:44:32;;;;;;;2.63;2.30;;;27.00;41.30;;;;;;5075480;28;20821;-46
2022/08/13 08:47:01;;;;;;;3.23;2.00;;;27.20;41.90;;;;;;5057511;28;20822;-46
2022/08/13 08:49:36;;;;;;;2.70;2.37;;;27.30;41.50;;;;;;5082598;28;20459;-44
2022/08/13 08:52:11;;;;;;;3.30;2.43;;;27.40;41.10;;;;;;5064432;28;20539;-44
2022/08/13 08:54:43;;;;;;;2.20;1.97;;;27.50;40.80;;;;;;5078497;28;20559;-44
2022/08/13 08:57:13;;;;;;;2.80;2.57;;;27.60;40.70;;;;;;5080807;28;20500;-44
2022/08/13 08:59:43;;;;;;;4.50;1.93;;;27.70;40.90;;;;;;5081549;28;20524;-46
2022/08/13 09:02:24;;;;;;;1.77;1.67;;;27.80;40.40;;;;;;5063749;28;20464;-47
2022/08/13 09:04:54;;;;;;;4.30;2.30;;;27.80;40.30;;;;;;5048163;28;20456;-47
2022/08/13 09:07:36;;;;;;;2.10;2.00;;;27.90;40.20;;;;;;5065691;28;20466;-44
2022/08/13 09:10:04;;;;;;;2.80;2.20;;;28.00;40.10;;;;;;5061929;28;20451;-44
2022/08/13 09:12:34;;;;;;;2.80;2.30;;;28.10;40.40;;;;;;5082904;28;20495;-44
2022/08/13 09:15:03;;;;;;;1.80;1.70;;;28.30;40.00;;;;;;5078694;28;20214;-44
2022/08/13 09:17:33;;;;;;;2.17;1.97;;;28.30;39.90;;;;;;5086457;28;20690;-44
2022/08/13 09:20:12;;;;;;;2.40;1.90;;;28.40;39.60;;;;;;5069724;28;20483;-44
2022/08/13 09:22:41;;;;;;;2.50;2.30;;;28.60;40.10;;;;;;5083310;28;20754;-46
2022/08/13 09:25:26;;;;;;;3.13;2.33;;;28.70;39.50;;;;;;5070997;28;20209;-45
2022/08/13 09:27:54;;;;;;;2.10;2.00;;;28.70;39.00;;;;;;5089339;28;20694;-45
2022/08/13 09:30:41;;;;;;;2.50;2.30;;;28.70;38.80;;;;;;5079610;28;20206;-46
2022/08/13 09:33:14;;;;;;;2.10;1.90;;;28.70;38.90;;;;;;5084598;28;20209;-45
2022/08/13 09:36:01;;;;;;;2.57;2.37;;;28.90;38.70;;;;;;5085925;28;20240;-44
2022/08/13 09:38:28;;;;;;;2.10;2.00;;;29.10;38.70;;;;;;5086529;28;20615;-44
2022/08/13 09:41:18;;;;;;;2.05;1.95;;;29.20;38.10;;;;;;5082926;28;20668;-44
2022/08/13 09:43:47;;;;;;;4.17;2.43;;;29.20;38.00;;;;;;5087391;28;20212;-44
2022/08/13 09:46:22;;;;;;;2.67;2.20;;;29.20;38.40;;;;;;5084520;28;20668;-44
2022/08/13 09:48:56;;;;;;;3.30;2.13;;;29.30;38.40;;;;;;5073444;28;20213;-44
2022/08/13 09:51:30;;;;;;;2.07;1.97;;;29.40;38.00;;;;;;5088201;28;20293;-44
2022/08/13 09:54:18;;;;;;;2.20;2.00;;;29.60;37.50;;;;;;5087883;28;20210;-44
2022/08/13 09:56:47;;;;;;;4.40;2.03;;;29.70;37.30;;;;;;5090060;28;20572;-44
2022/08/13 09:59:22;;;;;;;2.77;2.20;;;29.60;36.90;;;;;;5088948;28;20308;-44
2022/08/13 10:02:09;;;;;;;5.40;2.93;;;29.50;37.70;;;;;;5091054;28;20885;-44
2022/08/13 10:04:43;;;;;;;2.05;1.83;;;29.80;37.60;;;;;;5091021;28;20202;-44
2022/08/13 10:07:13;;;;;;;3.03;2.30;;;29.80;37.40;;;;;;5071828;28;20225;-44
2022/08/13 10:09:48;;;;;;;4.27;2.50;;;30.00;36.70;;;;;;5074761;28;20301;-44
2022/08/13 10:12:35;;;;;;;2.03;1.83;;;30.00;36.70;;;;;;5079847;28;20210;-44
2022/08/13 10:15:02;;;;;;;2.85;2.20;;;30.00;36.70;;;;;;5076773;28;20206;-43
2022/08/13 10:17:55;;;;;;;2.00;1.90;;;30.30;36.50;;;;;;5089040;28;20603;-45
2022/08/13 10:20:32;;;;;;;3.75;2.03;;;30.60;35.90;;;;;;5092048;28;20233;-44
2022/08/13 10:23:00;;;;;;;3.85;1.92;;;30.70;35.80;;;;;;5077245;28;20208;-44
2022/08/13 10:25:29;;;;;;;1.95;1.75;;;30.50;35.50;;;;;;5091324;28;20260;-44
2022/08/13 10:28:19;;;;;;;2.53;2.33;;;30.50;36.10;;;;;;5073298;28;20298;-44
2022/08/13 10:31:00;;;;;;;2.35;2.22;;;30.60;35.60;;;;;;5070593;28;20591;-44
2022/08/13 10:33:47;;;;;;;2.22;1.67;;;30.20;35.80;;;;;;5086740;28;20229;-44
2022/08/13 10:36:16;;;;;;;2.45;2.08;;;30.00;35.50;;;;;;5086223;28;20205;-44
2022/08/13 10:38:43;;;;;;;2.25;1.92;;;29.80;34.70;;;;;;5084033;28;20241;-44
2022/08/13 10:41:19;;;;;;;2.10;2.00;;;29.70;36.00;;;;;;5075138;28;20208;-44
2022/08/13 10:43:47;;;;;;;2.88;2.53;;;29.70;36.20;;;;;;5070995;28;20228;-43
2022/08/13 10:46:31;;;;;;;2.03;1.92;;;29.80;36.20;;;;;;5076744;28;20260;-43
2022/08/13 10:49:00;;;;;;;2.38;2.08;;;29.80;36.40;;;;;;5072842;28;20209;-44
2022/08/13 10:51:28;;;;;;;2.73;2.20;;;29.70;36.50;;;;;;5071209;28;20566;-44
2022/08/13 10:53:59;;;;;;;2.38;1.98;;;29.80;36.70;;;;;;5087586;28;20675;-44
2022/08/13 10:56:30;;;;;;;2.00;1.80;;;29.80;36.40;;;;;;5086436;28;20210;-45
2022/08/13 10:58:59;;;;;;;2.50;2.30;;;29.70;36.00;;;;;;5071156;28;20556;-44
2022/08/13 11:01:28;;;;;;;2.00;1.90;;;29.60;36.60;;;;;;5072684;28;20212;-44
2022/08/13 11:04:01;;;;;;;2.22;2.08;;;29.60;36.50;;;;;;5073771;28;20212;-45
2022/08/13 11:06:33;;;;;;;2.20;2.10;;;29.40;36.40;;;;;;5072135;28;20206;-45
2022/08/13 11:09:02;;;;;;;2.90;2.10;;;29.40;36.90;;;;;;5075157;28;20329;-45
2022/08/13 11:11:49;;;;;;;2.83;2.30;;;29.40;37.20;;;;;;5089440;28;20218;-45
2022/08/13 11:14:21;;;;;;;3.23;2.30;;;29.40;37.20;;;;;;5089316;28;20206;-44
2022/08/13 11:17:03;;;;;;;2.63;2.20;;;29.40;36.90;;;;;;5061490;28;20210;-44
2022/08/13 11:19:40;;;;;;;3.80;2.70;;;29.20;37.20;;;;;;5059283;28;20233;-44
2022/08/13 11:22:23;;;;;;;2.50;2.33;;;29.10;37.40;;;;;;5077750;28;20581;-45
2022/08/13 11:24:58;;;;;;;2.57;2.37;;;29.10;37.70;;;;;;5068121;28;20301;-45
2022/08/13 11:27:46;;;;;;;2.10;2.00;;;29.10;37.70;;;;;;5083687;28;20217;-45
2022/08/13 11:30:19;;;;;;;2.37;2.00;;;29.20;37.20;;;;;;5080248;28;20214;-43
2022/08/13 11:33:06;;;;;;;2.53;2.40;;;29.10;36.80;;;;;;5076582;28;20237;-44
2022/08/13 11:35:41;;;;;;;2.53;2.33;;;28.90;36.90;;;;;;5074577;28;20206;-44
2022/08/13 11:38:17;;;;;;;2.67;2.47;;;28.90;36.70;;;;;;5063845;28;20296;-44
2022/08/13 11:41:02;;;;;;;2.30;2.17;;;29.00;36.70;;;;;;5073189;28;20592;-44
2022/08/13 11:43:30;;;;;;;2.90;2.70;;;28.90;36.80;;;;;;5087657;28;20614;-44
2022/08/13 11:46:17;;;;;;;2.53;2.20;;;28.80;36.60;;;;;;5075128;28;20202;-44
2022/08/13 11:48:46;;;;;;;2.07;1.93;;;28.80;36.90;;;;;;5070905;28;20212;-44
2022/08/13 11:51:20;;;;;;;2.73;2.43;;;28.70;36.90;;;;;;5086595;28;20487;-44
2022/08/13 11:53:46;;;;;;;3.67;2.93;;;28.60;37.00;;;;;;5067974;28;20202;-44
2022/08/13 11:56:33;;;;;;;2.33;2.00;;;28.60;37.00;;;;;;5074552;28;20493;-44
2022/08/13 11:59:00;;;;;;;2.40;2.10;;;28.70;37.20;;;;;;5085471;28;20233;-44
2022/08/13 12:01:27;;;;;;;3.43;2.23;;;28.80;36.90;;;;;;5085972;28;20238;-44
2022/08/13 12:04:10;;;;;;;2.37;2.17;;;28.80;37.00;;;;;;5086782;28;20671;-44
2022/08/13 12:06:46;;;;;;;2.67;2.27;;;28.70;36.70;;;;;;5073336;28;20283;-44
2022/08/13 12:09:18;;;;;;;1.93;1.83;;;28.70;37.00;;;;;;5084795;28;20564;-44
2022/08/13 12:12:05;;;;;;;3.13;2.53;;;28.60;36.70;;;;;;5064905;28;20250;-44
2022/08/13 12:14:38;;;;;;;3.73;2.97;;;28.60;36.90;;;;;;5085995;28;20210;-44
2022/08/13 12:17:05;;;;;;;3.23;2.60;;;28.70;36.50;;;;;;5069906;28;20510;-44
2022/08/13 12:19:32;;;;;;;4.63;2.47;;;28.70;36.30;;;;;;5084817;28;20233;-44
2022/08/13 12:22:00;;;;;;;2.10;2.00;;;28.60;36.10;;;;;;5081811;28;20780;-44
2022/08/13 12:24:28;;;;;;;2.37;2.17;;;28.60;36.60;;;;;;5055699;28;20206;-44
2022/08/13 12:27:00;;;;;;;2.60;2.40;;;28.60;36.60;;;;;;5069001;28;20670;-44
2022/08/13 12:29:31;;;;;;;3.53;3.03;;;28.60;36.70;;;;;;5080228;28;20195;-44
2022/08/13 12:32:14;;;;;;;4.10;2.60;;;28.60;37.00;;;;;;5069411;28;20289;-44
2022/08/13 12:34:41;;;;;;;3.00;2.70;;;28.70;37.20;;;;;;5079460;28;20257;-44
2022/08/13 12:37:14;;;;;;;3.10;2.80;;;28.80;36.50;;;;;;5080544;28;20739;-44
2022/08/13 12:39:50;;;;;;;2.60;2.40;;;28.90;36.60;;;;;;5082554;28;20231;-44
2022/08/13 12:42:18;;;;;;;2.80;2.60;;;29.00;36.20;;;;;;5086281;28;20362;-44
2022/08/13 12:44:47;;;;;;;3.03;2.43;;;29.10;35.80;;;;;;5071286;28;20283;-44
2022/08/13 12:47:34;;;;;;;4.27;2.43;;;29.10;36.00;;;;;;5086539;28;20210;-44
2022/08/13 12:50:03;;;;;;;9.20;3.60;;;29.10;35.70;;;;;;5068315;28;20619;-44
2022/08/13 12:52:33;;;;;;;5.53;3.17;;;29.00;36.20;;;;;;5085066;28;20203;-44
2022/08/13 12:55:00;;;;;;;4.23;2.80;;;28.90;36.30;;;;;;5073627;28;20221;-44
2022/08/13 12:57:39;;;;;;;3.10;2.87;;;28.90;36.60;;;;;;5077151;28;20221;-44
2022/08/13 13:00:26;;;;;;;5.23;3.40;;;28.90;36.40;;;;;;5071380;28;20456;-44
2022/08/13 13:02:58;;;;;;;4.13;2.47;;;29.00;36.40;;;;;;5078322;28;20201;-44
2022/08/13 13:05:28;;;;;;;6.77;2.87;;;29.00;36.30;;;;;;5087374;28;20210;-44
2022/08/13 13:08:25;;;;;;;2.83;2.60;;;29.00;36.00;;;;;;5087024;28;20266;-44
2022/08/13 13:11:08;;;;;;;2.70;2.50;;;29.10;36.00;;;;;;5087785;28;20209;-44
2022/08/13 13:13:45;;;;;;;2.70;2.50;;;29.10;36.00;;;;;;5088495;28;20209;-44
2022/08/13 13:16:32;;;;;;;3.20;2.60;;;29.10;36.20;;;;;;5090387;28;20456;-44
2022/08/13 13:19:10;;;;;;;2.57;2.37;;;29.10;36.00;;;;;;5088367;28;20263;-44
2022/08/13 13:21:47;;;;;;;4.70;2.37;;;29.10;36.20;;;;;;5084010;28;20206;-44
2022/08/13 13:24:16;;;;;;;2.80;2.60;;;29.00;36.00;;;;;;5088055;28;20285;-44
2022/08/13 13:26:53;;;;;;;4.30;2.77;;;29.10;36.30;;;;;;5084958;28;20282;-44
2022/08/13 13:29:36;;;;;;;2.53;2.33;;;29.00;36.30;;;;;;5089883;28;20236;-44
2022/08/13 13:32:13;;;;;;;3.13;2.53;;;29.10;35.90;;;;;;5069387;28;20576;-44
2022/08/13 13:35:00;;;;;;;2.53;2.33;;;29.10;36.20;;;;;;5088189;28;20210;-44
2022/08/13 13:37:47;;;;;;;3.33;2.90;;;29.10;36.00;;;;;;5090610;28;20210;-44
2022/08/13 13:40:44;;;;;;;2.40;2.20;;;28.90;35.80;;;;;;5087075;28;20222;-44
2022/08/13 13:43:17;;;;;;;2.63;2.53;;;28.80;35.80;;;;;;5061756;28;20260;-44
2022/08/13 13:45:48;;;;;;;3.17;2.97;;;28.80;36.20;;;;;;5072088;28;20320;-44
2022/08/13 13:48:24;;;;;;;2.55;2.45;;;28.80;36.10;;;;;;5073201;28;20202;-44
2022/08/13 13:50:52;;;;;;;3.13;2.53;;;28.90;36.20;;;;;;5090278;28;20208;-44
2022/08/13 13:53:19;;;;;;;3.30;2.17;;;29.00;35.70;;;;;;5071333;28;20210;-44